Hg 306 Tobis — OUPS — position and weather

sailwx.info

Track history (hours):
 
Tides and Currents Weather Stations Pressure Air Temp Water Temp Dewpoint Dewpoint Depression Visibility Wind Speed Wind Dir Waves Ship Positions

Hg 306 Tobis

Last reported at 2018-Apr-22 18:02 UTC. Time now 2018-Apr-27 05:01 UTC.
Position N 58°19' E 004°09'.

Length 40 m; draft 6.4 m.

Type: Fishing. MMSI: 219013001.

Date/timePositionNaut miles runAvg speedWind from/ knotsBaromVisibWave heightAir tempDewpointWater temp
2018-Apr-22 18:02N 58°19' E 004°09'2 6.0
2018-Apr-22 17:46N 58°20' E 004°07'2 6.4
2018-Apr-22 17:29N 58°21' E 004°04'1 2.5
2018-Apr-22 16:59N 58°21' E 004°02'7 0.4
2018-Apr-22 02:18N 58°18' E 004°12'43 1.3
2018-Apr-20 16:33N 57°50' E 005°12'0 3.2
2018-Apr-20 16:24N 57°50' E 005°12'2 3.3
2018-Apr-20 15:52N 57°52' E 005°11'6 3.3
2018-Apr-20 14:07N 57°56' E 005°04'1 0.0
2018-Apr-19 09:37N 57°56' E 005°06'23 0.6
2018-Apr-17 20:20N 57°47' E 005°46'3 9.6
2018-Apr-17 20:00N 57°48' E 005°41'5 9.5
2018-Apr-17 19:30N 57°50' E 005°33'5 9.8
2018-Apr-17 19:00N 57°52' E 005°24'  
2018-Apr-12 21:47N 57°07' E 008°36'0 0.0
2018-Apr-12 21:30N 57°07' E 008°36'0 0.0
2018-Apr-12 21:00N 57°07' E 008°36'0 0.0
2018-Apr-12 20:29N 57°07' E 008°36'0 0.0
2018-Apr-12 20:00N 57°07' E 008°36'0 0.0
2018-Apr-12 19:29N 57°07' E 008°36'0 0.0
2018-Apr-12 18:59N 57°07' E 008°36'0 0.0
2018-Apr-12 18:30N 57°07' E 008°36'  
Track history (hours):
 
Tides and Currents Weather Stations Pressure Air Temp Water Temp Dewpoint Dewpoint Depression Visibility Wind Speed Wind Dir Waves Ship Positions

Hg 306 Tobis

Last reported at 2018-Apr-22 18:02 UTC. Time now 2018-Apr-27 05:01 UTC.
Position N 58°19' E 004°09'.

Length 40 m; draft 6.4 m.

Type: Fishing. MMSI: 219013001.

Date/timePositionNaut miles runAvg speedWind from/ knotsBaromVisibWave heightAir tempDewpointWater temp
2018-Apr-22 18:02N 58°19' E 004°09'2 6.0
2018-Apr-22 17:46N 58°20' E 004°07'2 6.4
2018-Apr-22 17:29N 58°21' E 004°04'1 2.5
2018-Apr-22 16:59N 58°21' E 004°02'7 0.4
2018-Apr-22 02:18N 58°18' E 004°12'43 1.3
2018-Apr-20 16:33N 57°50' E 005°12'0 3.2
2018-Apr-20 16:24N 57°50' E 005°12'2 3.3
2018-Apr-20 15:52N 57°52' E 005°11'6 3.3
2018-Apr-20 14:07N 57°56' E 005°04'1 0.0
2018-Apr-19 09:37N 57°56' E 005°06'23 0.6
2018-Apr-17 20:20N 57°47' E 005°46'3 9.6
2018-Apr-17 20:00N 57°48' E 005°41'5 9.5
2018-Apr-17 19:30N 57°50' E 005°33'5 9.8
2018-Apr-17 19:00N 57°52' E 005°24'  
2018-Apr-12 21:47N 57°07' E 008°36'0 0.0
2018-Apr-12 21:30N 57°07' E 008°36'0 0.0
2018-Apr-12 21:00N 57°07' E 008°36'0 0.0
2018-Apr-12 20:29N 57°07' E 008°36'0 0.0
2018-Apr-12 20:00N 57°07' E 008°36'0 0.0
2018-Apr-12 19:29N 57°07' E 008°36'0 0.0
2018-Apr-12 18:59N 57°07' E 008°36'0 0.0
2018-Apr-12 18:30N 57°07' E 008°36'  

Dump ship's entire track history